createdAt,value
2022-11-15T00:00:57.754Z,10.27
2022-11-15T00:03:26.295Z,11.95
2022-11-15T00:05:55.082Z,9.50
2022-11-15T00:08:21.966Z,10.65
2022-11-15T00:10:56.521Z,9.38
2022-11-15T00:13:23.505Z,9.93
2022-11-15T00:15:50.091Z,11.80
2022-11-15T00:18:17.717Z,6.97
2022-11-15T00:20:44.926Z,9.52
2022-11-15T00:23:11.839Z,8.38
2022-11-15T00:25:38.458Z,8.05
2022-11-15T00:28:05.136Z,9.77
2022-11-15T00:30:31.946Z,13.88
2022-11-15T00:33:06.230Z,15.30
2022-11-15T00:35:34.469Z,10.68
2022-11-15T00:38:02.887Z,10.35
2022-11-15T00:40:30.227Z,10.55
2022-11-15T00:42:57.087Z,10.10
2022-11-15T00:45:24.071Z,8.55
2022-11-15T00:47:51.007Z,12.18
2022-11-15T00:50:17.822Z,10.15
2022-11-15T00:52:44.915Z,10.35
2022-11-15T00:55:16.887Z,8.88
2022-11-15T01:00:11.079Z,8.27
2022-11-15T01:02:37.742Z,11.57
2022-11-15T01:05:05.373Z,8.13
2022-11-15T01:07:32.301Z,8.88
2022-11-15T01:09:58.954Z,9.15
2022-11-15T01:12:25.546Z,9.13
2022-11-15T01:14:52.155Z,7.50
2022-11-15T01:17:18.865Z,11.70
2022-11-15T01:19:46.263Z,8.43
2022-11-15T01:22:13.039Z,10.40
2022-11-15T01:24:39.679Z,11.75
2022-11-15T01:27:06.301Z,8.05
2022-11-15T01:29:32.896Z,8.10
2022-11-15T01:31:59.586Z,6.72
2022-11-15T01:34:26.205Z,9.30
2022-11-15T01:36:52.825Z,7.35
2022-11-15T01:39:20.058Z,7.72
2022-11-15T01:41:46.743Z,5.78
2022-11-15T01:44:31.824Z,8.77
2022-11-15T01:47:00.784Z,6.82
2022-11-15T01:49:30.947Z,5.85
2022-11-15T01:51:58.368Z,6.10
2022-11-15T01:54:25.478Z,5.80
2022-11-15T01:57:02.906Z,5.88
2022-11-15T01:59:29.743Z,7.55
2022-11-15T02:01:56.696Z,6.63
2022-11-15T02:04:31.159Z,5.20
2022-11-15T02:06:58.039Z,6.35
2022-11-15T02:09:24.816Z,5.80
2022-11-15T02:11:52.872Z,5.20
2022-11-15T02:14:21.021Z,5.97
2022-11-15T02:16:50.758Z,5.35
2022-11-15T02:19:20.074Z,5.28
2022-11-15T02:22:30.825Z,6.13
2022-11-15T02:25:32.531Z,5.97
2022-11-15T02:28:16.546Z,8.60
2022-11-15T02:30:55.013Z,5.15
2022-11-15T02:33:43.684Z,8.35
2022-11-15T02:36:26.838Z,6.30
2022-11-15T02:39:09.807Z,8.23
2022-11-15T02:41:46.825Z,7.10
2022-11-15T02:44:21.154Z,6.85
2022-11-15T02:47:13.852Z,9.25
2022-11-15T02:49:48.010Z,9.55
2022-11-15T02:52:20.573Z,7.00
2022-11-15T02:54:56.145Z,7.13
2022-11-15T02:57:53.295Z,6.75
2022-11-15T03:00:21.412Z,6.30
2022-11-15T03:03:02.930Z,7.60
2022-11-15T03:05:53.432Z,8.23
2022-11-15T03:08:30.112Z,6.38
2022-11-15T03:11:13.087Z,7.43
2022-11-15T03:13:57.443Z,8.60
2022-11-15T03:16:51.810Z,6.93
2022-11-15T03:19:27.502Z,9.13
2022-11-15T03:21:56.984Z,7.65
2022-11-15T03:24:26.375Z,8.77
2022-11-15T03:26:55.864Z,9.45
2022-11-15T03:29:27.080Z,10.43
2022-11-15T03:32:00.538Z,8.07
2022-11-15T03:34:30.778Z,8.85
2022-11-15T03:36:57.582Z,5.97
2022-11-15T03:39:25.149Z,9.55
2022-11-15T03:42:09.034Z,9.18
2022-11-15T03:44:39.892Z,6.03
2022-11-15T03:47:19.006Z,7.20
2022-11-15T03:49:54.650Z,7.82
2022-11-15T03:52:22.832Z,7.32
2022-11-15T03:54:53.231Z,8.60
2022-11-15T03:57:19.854Z,8.07
2022-11-15T03:59:46.526Z,8.32
2022-11-15T04:02:15.068Z,7.88
2022-11-15T04:04:41.748Z,8.60
2022-11-15T04:07:08.474Z,6.50
2022-11-15T04:09:55.372Z,9.57
2022-11-15T04:12:34.228Z,8.55
2022-11-15T04:15:09.529Z,9.35
2022-11-15T04:17:42.174Z,9.05
2022-11-15T04:20:29.480Z,7.30
2022-11-15T04:23:15.941Z,8.77
2022-11-15T04:25:43.614Z,6.05
2022-11-15T04:28:10.682Z,7.22
2022-11-15T04:30:37.554Z,7.30
2022-11-15T04:33:04.302Z,7.07
2022-11-15T04:35:31.133Z,9.52
2022-11-15T04:37:59.253Z,7.75
2022-11-15T04:40:25.982Z,6.03
2022-11-15T04:42:52.839Z,7.30
2022-11-15T04:45:19.978Z,5.75
2022-11-15T04:47:47.375Z,7.15
2022-11-15T04:50:15.537Z,5.47
2022-11-15T04:52:43.309Z,8.73
2022-11-15T04:55:12.992Z,6.35
2022-11-15T04:57:39.676Z,6.10
2022-11-15T05:00:08.614Z,5.80
2022-11-15T05:02:53.639Z,7.50
2022-11-15T05:05:20.323Z,7.82
2022-11-15T05:07:46.959Z,7.75
2022-11-15T05:10:13.574Z,7.50
2022-11-15T05:12:40.308Z,7.13
2022-11-15T05:15:07.453Z,6.13
2022-11-15T05:17:34.075Z,6.68
2022-11-15T05:20:00.833Z,5.80
2022-11-15T05:22:28.045Z,4.85
2022-11-15T05:24:54.738Z,5.43
2022-11-15T05:27:21.391Z,5.85
2022-11-15T05:29:47.985Z,5.75
2022-11-15T05:32:14.736Z,5.25
2022-11-15T05:34:41.612Z,4.82
2022-11-15T05:37:08.573Z,5.63
2022-11-15T05:39:35.171Z,4.70
2022-11-15T05:42:11.339Z,5.10
2022-11-15T05:44:40.628Z,4.15
2022-11-15T05:47:11.214Z,5.55
2022-11-15T05:49:41.313Z,5.82
2022-11-15T05:52:09.497Z,6.05
2022-11-15T05:54:37.542Z,4.68
2022-11-15T05:57:05.861Z,5.32
2022-11-15T05:59:34.142Z,6.70
2022-11-15T06:02:01.002Z,6.15
2022-11-15T06:04:27.719Z,4.97
2022-11-15T06:06:54.562Z,6.75
2022-11-15T06:09:21.231Z,4.88
2022-11-15T06:11:48.740Z,3.53
2022-11-15T06:14:15.355Z,4.80
2022-11-15T06:16:41.997Z,3.92
2022-11-15T06:19:11.405Z,4.55
2022-11-15T06:21:38.017Z,5.63
2022-11-15T06:24:05.581Z,5.13
2022-11-15T06:26:32.450Z,5.65
2022-11-15T06:28:59.139Z,3.92
2022-11-15T06:31:25.763Z,5.72
2022-11-15T06:33:52.445Z,4.72
2022-11-15T06:36:19.321Z,4.03
2022-11-15T06:38:46.197Z,4.47
2022-11-15T06:41:14.293Z,5.75
2022-11-15T06:43:41.744Z,5.93
2022-11-15T06:46:09.090Z,4.10
2022-11-15T06:48:37.100Z,4.10
2022-11-15T06:51:05.117Z,3.30
2022-11-15T06:53:32.962Z,3.50
2022-11-15T06:56:07.263Z,5.68
2022-11-15T06:58:34.249Z,4.38
2022-11-15T07:01:03.347Z,5.78
2022-11-15T07:03:30.630Z,3.72
2022-11-15T07:06:02.962Z,5.25
2022-11-15T07:08:34.037Z,5.18
2022-11-15T07:11:05.830Z,3.45
2022-11-15T07:13:35.013Z,4.10
2022-11-15T07:16:06.985Z,4.07
2022-11-15T07:18:38.485Z,3.78
2022-11-15T07:21:06.764Z,4.68
2022-11-15T07:23:34.465Z,6.97
2022-11-15T07:26:01.596Z,7.60
2022-11-15T07:28:29.356Z,5.97
2022-11-15T07:30:56.194Z,5.72
2022-11-15T07:33:22.827Z,8.38
2022-11-15T07:35:49.456Z,4.57
2022-11-15T07:38:20.428Z,4.50
2022-11-15T07:40:47.853Z,4.82
2022-11-15T07:43:14.719Z,4.78
2022-11-15T07:45:45.577Z,4.22
2022-11-15T07:48:12.542Z,5.32
2022-11-15T07:50:43.229Z,3.65
2022-11-15T07:53:11.172Z,3.22
2022-11-15T07:55:38.395Z,3.13
2022-11-15T07:58:07.182Z,3.67
2022-11-15T08:00:34.130Z,4.53
2022-11-15T08:03:10.192Z,4.30
2022-11-15T08:05:38.312Z,4.38
2022-11-15T08:08:05.728Z,3.60
2022-11-15T08:10:35.268Z,3.95
2022-11-15T08:13:10.848Z,4.43
2022-11-15T08:15:38.366Z,3.92
2022-11-15T08:18:13.293Z,4.57
2022-11-15T08:20:39.965Z,4.60
2022-11-15T08:23:07.671Z,5.28
2022-11-15T08:25:35.830Z,4.45
2022-11-15T08:28:05.290Z,5.80
2022-11-15T08:30:35.452Z,4.72
2022-11-15T08:33:02.143Z,5.25
2022-11-15T08:35:29.632Z,5.15
2022-11-15T08:37:56.577Z,5.20
2022-11-15T08:40:23.889Z,3.75
2022-11-15T08:42:50.540Z,8.05
2022-11-15T08:45:17.291Z,6.15
2022-11-15T08:47:45.109Z,7.15
2022-11-15T08:50:14.040Z,4.40
2022-11-15T08:52:40.709Z,7.82
2022-11-15T08:55:07.819Z,6.07
2022-11-15T08:57:34.446Z,4.07
2022-11-15T09:00:01.204Z,4.05
2022-11-15T09:02:27.822Z,8.57
2022-11-15T09:04:57.319Z,3.92
2022-11-15T09:07:25.100Z,2.88
2022-11-15T09:09:51.829Z,4.53
2022-11-15T09:12:18.452Z,4.97
2022-11-15T09:14:45.064Z,5.97
2022-11-15T09:17:11.686Z,5.53
2022-11-15T09:19:38.502Z,6.40
2022-11-15T09:22:09.381Z,7.85
2022-11-15T09:24:36.402Z,4.53
2022-11-15T09:27:03.815Z,4.05
2022-11-15T09:29:30.489Z,6.05
2022-11-15T09:31:57.137Z,4.60
2022-11-15T09:34:23.779Z,4.68
2022-11-15T09:36:50.418Z,6.82
2022-11-15T09:39:17.081Z,5.38
2022-11-15T09:42:10.355Z,4.32
2022-11-15T09:44:54.988Z,5.20
2022-11-15T09:47:51.837Z,4.40
2022-11-15T09:50:47.812Z,4.60
2022-11-15T09:53:47.919Z,4.38
2022-11-15T09:56:22.078Z,6.70
2022-11-15T09:58:56.176Z,3.83
2022-11-15T10:02:05.110Z,5.10
2022-11-15T10:04:32.476Z,7.18
2022-11-15T10:07:29.180Z,6.53
2022-11-15T10:10:02.848Z,3.95
2022-11-15T10:12:30.875Z,5.72
2022-11-15T10:15:10.145Z,3.10
2022-11-15T10:17:57.964Z,5.38
2022-11-15T10:20:30.148Z,3.90
2022-11-15T10:23:07.389Z,4.88
2022-11-15T10:25:35.287Z,4.15
2022-11-15T10:28:07.806Z,3.80
2022-11-15T10:30:37.636Z,5.82
2022-11-15T10:33:22.359Z,3.67
2022-11-15T10:35:49.099Z,4.05
2022-11-15T10:38:15.751Z,3.45
2022-11-15T10:40:44.655Z,4.95
2022-11-15T10:43:14.658Z,5.22
2022-11-15T10:45:41.915Z,6.15
2022-11-15T10:48:14.547Z,5.18
2022-11-15T10:50:43.748Z,7.15
2022-11-15T10:53:26.118Z,5.45
2022-11-15T10:55:57.445Z,4.45
2022-11-15T10:58:36.147Z,4.25
2022-11-15T11:01:15.698Z,4.30
2022-11-15T11:03:44.286Z,3.20
2022-11-15T11:06:18.032Z,3.45
2022-11-15T11:09:02.360Z,2.80
2022-11-15T11:11:49.235Z,3.50
2022-11-15T11:14:24.252Z,3.92
2022-11-15T11:17:03.857Z,3.53
2022-11-15T11:20:00.395Z,4.97
2022-11-15T11:22:41.132Z,4.20
2022-11-15T11:25:37.097Z,4.22
2022-11-15T11:28:40.630Z,3.28
2022-11-15T11:32:02.997Z,4.40
2022-11-15T11:34:48.939Z,3.67
2022-11-15T11:37:32.973Z,3.97
2022-11-15T11:40:31.146Z,3.03
2022-11-15T11:43:15.778Z,3.85
2022-11-15T11:46:07.712Z,2.45
2022-11-15T11:48:58.047Z,3.42
2022-11-15T11:51:32.637Z,5.15
2022-11-15T11:54:07.024Z,2.28
2022-11-15T11:56:35.937Z,3.85
2022-11-15T11:59:34.726Z,4.72
2022-11-15T12:02:16.502Z,3.75
2022-11-15T12:04:48.455Z,3.53
2022-11-15T12:09:57.359Z,2.75
2022-11-15T12:12:43.809Z,3.67
2022-11-15T12:15:10.591Z,3.60
2022-11-15T12:17:39.510Z,2.45
2022-11-15T12:20:22.739Z,2.60
2022-11-15T12:22:55.309Z,4.90
2022-11-15T12:25:49.498Z,2.13
2022-11-15T12:28:20.006Z,6.22
2022-11-15T12:30:52.386Z,4.03
2022-11-15T12:33:38.159Z,8.65
2022-11-15T12:36:24.767Z,5.65
2022-11-15T12:39:07.231Z,2.10
2022-11-15T12:41:39.285Z,2.35
2022-11-15T12:44:11.330Z,1.95
2022-11-15T12:46:41.427Z,2.65
2022-11-15T12:49:28.134Z,3.97
2022-11-15T12:51:57.894Z,4.00
2022-11-15T12:54:24.543Z,5.57
2022-11-15T12:57:09.883Z,2.13
2022-11-15T12:59:55.256Z,4.20
2022-11-15T13:02:31.018Z,2.95
2022-11-15T13:05:23.182Z,2.25
2022-11-15T13:10:28.522Z,3.67
2022-11-15T13:13:04.846Z,6.55
2022-11-15T13:15:54.784Z,2.53
2022-11-15T13:18:37.452Z,4.40
2022-11-15T13:21:26.699Z,2.83
2022-11-15T13:23:55.046Z,4.15
2022-11-15T13:26:22.352Z,3.17
2022-11-15T13:28:52.760Z,5.03
2022-11-15T13:31:41.330Z,4.97
2022-11-15T13:34:50.881Z,3.88
2022-11-15T13:37:21.278Z,3.25
2022-11-15T13:39:49.435Z,4.60
2022-11-15T13:42:20.586Z,3.65
2022-11-15T13:45:03.126Z,3.92
2022-11-15T13:47:31.099Z,3.45
2022-11-15T13:49:58.686Z,5.45
2022-11-15T13:52:32.224Z,3.55
2022-11-15T13:55:04.275Z,2.88
2022-11-15T13:57:45.406Z,4.20
2022-11-15T14:00:30.927Z,2.53
2022-11-15T14:03:05.359Z,3.50
2022-11-15T14:05:32.087Z,2.63
2022-11-15T14:08:20.350Z,2.72
2022-11-15T14:10:47.076Z,1.88
2022-11-15T14:13:32.269Z,1.98
2022-11-15T14:16:19.976Z,4.18
2022-11-15T14:18:48.204Z,2.35
2022-11-15T14:21:15.364Z,3.75
2022-11-15T14:23:42.955Z,1.90
2022-11-15T14:26:31.712Z,4.13
2022-11-15T14:28:58.446Z,2.88
2022-11-15T14:31:25.365Z,3.60
2022-11-15T14:33:52.016Z,6.57
2022-11-15T14:36:21.215Z,3.45
2022-11-15T14:38:48.769Z,2.47
2022-11-15T14:41:24.689Z,3.03
2022-11-15T14:43:52.870Z,2.55
2022-11-15T14:46:19.965Z,2.63
2022-11-15T14:48:46.636Z,5.00
2022-11-15T14:51:22.365Z,10.15
2022-11-15T14:53:49.653Z,4.05
2022-11-15T14:56:17.615Z,4.35
2022-11-15T14:58:44.267Z,2.83
2022-11-15T15:01:17.274Z,2.88
2022-11-15T15:03:45.111Z,2.28
2022-11-15T15:06:17.950Z,2.20
2022-11-15T15:08:46.409Z,2.97
2022-11-15T15:11:19.721Z,2.78
2022-11-15T15:13:46.322Z,2.20
2022-11-15T15:16:12.966Z,2.95
2022-11-15T15:18:39.619Z,2.33
2022-11-15T15:21:21.252Z,2.22
2022-11-15T15:23:48.265Z,2.35
2022-11-15T15:26:15.236Z,3.42
2022-11-15T15:28:42.225Z,2.08
2022-11-15T15:31:10.478Z,2.00
2022-11-15T15:33:37.970Z,3.30
2022-11-15T15:36:05.246Z,2.78
2022-11-15T15:38:32.172Z,2.95
2022-11-15T15:41:00.694Z,2.22
2022-11-15T15:43:27.359Z,3.78
2022-11-15T15:45:53.994Z,3.03
2022-11-15T15:48:20.603Z,5.68
2022-11-15T15:50:48.270Z,3.30
2022-11-15T15:53:14.995Z,3.70
2022-11-15T15:55:41.930Z,2.88
2022-11-15T15:58:09.119Z,4.35
2022-11-15T16:00:35.972Z,2.53
2022-11-15T16:03:02.980Z,5.20
2022-11-15T16:05:29.720Z,3.85
2022-11-15T16:07:56.414Z,4.25
2022-11-15T16:10:26.036Z,4.68
2022-11-15T16:12:53.982Z,2.35
2022-11-15T16:15:22.081Z,3.30
2022-11-15T16:17:52.402Z,4.97
2022-11-15T16:20:50.897Z,3.95
2022-11-15T16:23:20.886Z,3.15
2022-11-15T16:25:58.038Z,3.47
2022-11-15T16:28:30.334Z,5.28
2022-11-15T16:31:14.378Z,6.22
2022-11-15T16:33:41.508Z,7.05
2022-11-15T16:36:18.343Z,3.33
2022-11-15T16:38:44.950Z,7.10
2022-11-15T16:41:11.551Z,6.35
2022-11-15T16:43:38.303Z,5.47
2022-11-15T16:46:13.820Z,8.52
2022-11-15T16:48:40.472Z,7.80
2022-11-15T16:51:08.051Z,8.88
2022-11-15T16:53:34.674Z,6.70
2022-11-15T16:56:01.356Z,9.48
2022-11-15T16:58:28.094Z,6.93
2022-11-15T17:00:56.470Z,5.57
2022-11-15T17:03:24.441Z,7.45
2022-11-15T17:05:51.568Z,5.68
2022-11-15T17:08:20.687Z,7.13
2022-11-15T17:10:47.453Z,8.20
2022-11-15T17:13:14.611Z,4.80
2022-11-15T17:15:41.358Z,6.47
2022-11-15T17:18:13.136Z,6.97
2022-11-15T17:20:40.771Z,7.15
2022-11-15T17:23:12.174Z,5.57
2022-11-15T17:25:38.824Z,5.38
2022-11-15T17:28:05.510Z,7.40
2022-11-15T17:30:34.310Z,6.13
2022-11-15T17:33:01.174Z,5.63
2022-11-15T17:35:27.793Z,5.25
2022-11-15T17:37:54.445Z,7.65
2022-11-15T17:40:21.082Z,7.20
2022-11-15T17:42:48.116Z,7.10
2022-11-15T17:45:14.863Z,6.05
2022-11-15T17:47:41.599Z,6.00
2022-11-15T17:50:09.577Z,7.63
2022-11-15T17:52:36.322Z,8.18
2022-11-15T17:55:03.144Z,8.95
2022-11-15T17:57:29.761Z,10.60
2022-11-15T17:59:56.407Z,7.20
2022-11-15T18:02:23.039Z,6.53
2022-11-15T18:04:49.743Z,4.78
2022-11-15T18:07:16.368Z,6.90
2022-11-15T18:09:43.995Z,7.82
2022-11-15T18:12:11.666Z,6.60
2022-11-15T18:14:38.600Z,5.80
2022-11-15T18:17:05.511Z,5.35
2022-11-15T18:19:32.312Z,6.50
2022-11-15T18:22:00.765Z,6.68
2022-11-15T18:24:32.678Z,7.30
2022-11-15T18:29:27.082Z,5.75
2022-11-15T18:31:57.420Z,7.03
2022-11-15T18:34:25.749Z,7.93
2022-11-15T18:36:53.259Z,5.47
2022-11-15T18:39:20.108Z,5.00
2022-11-15T18:41:47.269Z,7.00
2022-11-15T18:44:14.187Z,7.55
2022-11-15T18:46:42.223Z,8.50
2022-11-15T18:49:10.563Z,8.18
2022-11-15T18:51:41.473Z,5.85
2022-11-15T18:54:10.496Z,6.40
2022-11-15T18:56:38.166Z,6.45
2022-11-15T18:59:06.100Z,9.55
2022-11-15T19:01:36.021Z,7.63
2022-11-15T19:04:14.000Z,6.10
2022-11-15T19:06:42.742Z,8.95
2022-11-15T19:09:12.678Z,7.47
2022-11-15T19:11:40.135Z,7.88
2022-11-15T19:14:11.834Z,7.78
2022-11-15T19:16:41.402Z,6.93
2022-11-15T19:19:13.209Z,11.73
2022-11-15T19:21:39.848Z,9.25
2022-11-15T19:24:06.690Z,8.07
2022-11-15T19:26:33.703Z,5.88
2022-11-15T19:29:03.056Z,4.50
2022-11-15T19:31:31.577Z,7.00
2022-11-15T19:34:00.240Z,4.78
2022-11-15T19:36:32.264Z,4.95
2022-11-15T19:41:26.232Z,5.70
2022-11-15T19:43:53.202Z,3.30
2022-11-15T19:46:21.829Z,5.60
2022-11-15T19:48:48.970Z,6.50
2022-11-15T19:51:24.458Z,5.70
2022-11-15T19:53:56.153Z,4.55
2022-11-15T19:56:23.687Z,4.53
2022-11-15T19:58:55.226Z,3.88
2022-11-15T20:01:26.055Z,3.95
2022-11-15T20:03:58.617Z,4.30
2022-11-15T20:06:36.528Z,7.13
2022-11-15T20:09:03.984Z,5.28
2022-11-15T20:11:30.979Z,6.03
2022-11-15T20:13:59.311Z,7.32
2022-11-15T20:16:26.258Z,4.03
2022-11-15T20:18:53.574Z,4.95
2022-11-15T20:21:21.437Z,4.07
2022-11-15T20:23:50.602Z,5.32
2022-11-15T20:26:18.251Z,4.07
2022-11-15T20:28:45.499Z,9.15
2022-11-15T20:31:12.959Z,6.82
2022-11-15T20:33:40.085Z,10.25
2022-11-15T20:36:09.551Z,5.40
2022-11-15T20:38:37.315Z,5.57
2022-11-15T20:41:04.328Z,5.93
2022-11-15T20:43:31.006Z,5.60
2022-11-15T20:45:57.871Z,7.78
2022-11-15T20:48:24.624Z,5.78
2022-11-15T20:50:51.327Z,4.40
2022-11-15T20:53:22.163Z,4.65
2022-11-15T20:55:49.829Z,5.15
2022-11-15T20:58:17.599Z,5.75
2022-11-15T21:00:45.867Z,7.97
2022-11-15T21:03:14.082Z,5.85
2022-11-15T21:05:42.611Z,5.85
2022-11-15T21:08:10.884Z,5.63
2022-11-15T21:10:56.467Z,10.43
2022-11-15T21:13:23.113Z,5.07
2022-11-15T21:15:50.139Z,5.13
2022-11-15T21:18:16.795Z,3.70
2022-11-15T21:20:43.547Z,4.50
2022-11-15T21:23:11.548Z,4.40
2022-11-15T21:25:38.293Z,7.20
2022-11-15T21:28:05.239Z,5.53
2022-11-15T21:30:31.909Z,4.72
2022-11-15T21:32:58.545Z,6.05
2022-11-15T21:35:25.338Z,7.65
2022-11-15T21:37:56.666Z,4.95
2022-11-15T21:40:24.652Z,5.55
2022-11-15T21:42:51.296Z,7.05
2022-11-15T21:45:17.938Z,3.88
2022-11-15T21:47:46.297Z,5.55
2022-11-15T21:50:13.857Z,5.45
2022-11-15T21:52:41.084Z,11.40
2022-11-15T21:55:08.610Z,5.47
2022-11-15T21:57:35.366Z,6.13
2022-11-15T22:00:20.936Z,6.47
2022-11-15T22:02:47.616Z,7.10
2022-11-15T22:05:14.363Z,3.55
2022-11-15T22:07:41.026Z,5.13
2022-11-15T22:10:08.055Z,4.95
2022-11-15T22:12:34.729Z,6.00
2022-11-15T22:15:01.420Z,6.07
2022-11-15T22:17:48.079Z,5.20
2022-11-15T22:20:44.057Z,6.22
2022-11-15T22:23:02.947Z,5.13
2022-11-15T22:25:29.733Z,6.05
2022-11-15T22:27:56.842Z,4.45
2022-11-15T22:30:24.310Z,6.97
2022-11-15T22:32:51.059Z,4.03
2022-11-15T22:35:17.822Z,6.63
2022-11-15T22:37:44.495Z,7.10
2022-11-15T22:40:11.301Z,6.32
2022-11-15T22:42:37.977Z,4.72
2022-11-15T22:45:05.040Z,4.10
2022-11-15T22:47:31.784Z,5.22
2022-11-15T22:49:58.497Z,4.80
2022-11-15T22:52:25.170Z,5.47
2022-11-15T22:54:51.937Z,4.15
2022-11-15T22:57:18.668Z,3.33
2022-11-15T22:59:45.816Z,5.65
2022-11-15T23:02:12.588Z,5.40
2022-11-15T23:04:39.347Z,5.82
2022-11-15T23:07:06.140Z,5.63
2022-11-15T23:09:32.938Z,3.42
2022-11-15T23:12:18.469Z,4.50
2022-11-15T23:14:45.218Z,5.57
2022-11-15T23:17:11.960Z,4.95
2022-11-15T23:19:38.664Z,5.03
2022-11-15T23:22:24.349Z,4.78
2022-11-15T23:24:52.526Z,7.85
2022-11-15T23:27:20.621Z,4.50
2022-11-15T23:30:06.409Z,3.95
2022-11-15T23:32:51.856Z,5.53
2022-11-15T23:35:18.503Z,4.40
2022-11-15T23:37:45.505Z,6.63
2022-11-15T23:40:13.035Z,7.10
2022-11-15T23:42:39.818Z,6.75
2022-11-15T23:45:10.259Z,5.30
2022-11-15T23:47:36.936Z,6.18
2022-11-15T23:50:04.074Z,7.10
2022-11-15T23:52:30.804Z,6.53
2022-11-15T23:54:57.481Z,7.60
2022-11-15T23:57:24.155Z,4.55
2022-11-15T23:59:50.815Z,5.32
